sensor_id;sensor_type;location;lat;lon;timestamp;pressure;altitude;pressure_sealevel;temperature;humidity
60479;BME280;46321;48.398;11.754;2023-09-07T00:00:37;96915.81;;;17.15;69.48
60479;BME280;46321;48.398;11.754;2023-09-07T00:03:03;96918.25;;;17.03;69.19
60479;BME280;46321;48.398;11.754;2023-09-07T00:05:29;96925.03;;;17.05;69.27
60479;BME280;46321;48.398;11.754;2023-09-07T00:07:54;96925.25;;;17.04;69.04
60479;BME280;46321;48.398;11.754;2023-09-07T00:10:21;96926.69;;;17.07;68.97
60479;BME280;46321;48.398;11.754;2023-09-07T00:12:46;96925.47;;;17.09;68.91
60479;BME280;46321;48.398;11.754;2023-09-07T00:15:11;96929.78;;;17.10;69.26
60479;BME280;46321;48.398;11.754;2023-09-07T00:17:37;96935.94;;;17.11;68.87
60479;BME280;46321;48.398;11.754;2023-09-07T00:20:03;96929.16;;;17.08;69.12
60479;BME280;46321;48.398;11.754;2023-09-07T00:22:39;96935.34;;;17.02;69.48
60479;BME280;46321;48.398;11.754;2023-09-07T00:25:05;96930.38;;;16.92;69.65
60479;BME280;46321;48.398;11.754;2023-09-07T00:27:32;96930.00;;;16.88;69.20
60479;BME280;46321;48.398;11.754;2023-09-07T00:29:57;96928.75;;;16.91;69.47
60479;BME280;46321;48.398;11.754;2023-09-07T00:32:23;96933.06;;;16.92;69.33
60479;BME280;46321;48.398;11.754;2023-09-07T00:34:48;96929.97;;;16.81;69.72
60479;BME280;46321;48.398;11.754;2023-09-07T00:37:13;96925.25;;;16.83;69.50
60479;BME280;46321;48.398;11.754;2023-09-07T00:39:38;96924.63;;;16.88;69.85
60479;BME280;46321;48.398;11.754;2023-09-07T00:42:04;96921.34;;;16.86;69.83
60479;BME280;46321;48.398;11.754;2023-09-07T00:44:29;96921.13;;;16.88;69.18
60479;BME280;46321;48.398;11.754;2023-09-07T00:46:56;96919.28;;;16.81;69.81
60479;BME280;46321;48.398;11.754;2023-09-07T00:49:22;96914.34;;;16.78;70.22
60479;BME280;46321;48.398;11.754;2023-09-07T00:51:47;96920.72;;;16.77;69.87
60479;BME280;46321;48.398;11.754;2023-09-07T00:54:12;96925.63;;;16.74;69.91
60479;BME280;46321;48.398;11.754;2023-09-07T00:56:37;96918.06;;;16.70;70.40
60479;BME280;46321;48.398;11.754;2023-09-07T00:59:03;96914.94;;;16.67;70.58
60479;BME280;46321;48.398;11.754;2023-09-07T01:01:29;96910.84;;;16.64;70.51
60479;BME280;46321;48.398;11.754;2023-09-07T01:03:56;96911.88;;;16.63;70.50
60479;BME280;46321;48.398;11.754;2023-09-07T01:06:25;96905.69;;;16.56;70.77
60479;BME280;46321;48.398;11.754;2023-09-07T01:08:55;96909.16;;;16.43;70.89
60479;BME280;46321;48.398;11.754;2023-09-07T01:11:22;96909.78;;;16.38;70.81
60479;BME280;46321;48.398;11.754;2023-09-07T01:13:48;96912.63;;;16.23;72.28
60479;BME280;46321;48.398;11.754;2023-09-07T01:16:14;96913.84;;;16.20;71.74
60479;BME280;46321;48.398;11.754;2023-09-07T01:18:40;96917.72;;;16.18;71.89
60479;BME280;46321;48.398;11.754;2023-09-07T01:21:07;96911.56;;;16.10;72.51
60479;BME280;46321;48.398;11.754;2023-09-07T01:23:35;96906.19;;;16.04;72.33
60479;BME280;46321;48.398;11.754;2023-09-07T01:26:01;96911.06;;;16.00;72.72
60479;BME280;46321;48.398;11.754;2023-09-07T01:28:27;96906.94;;;15.97;72.68
60479;BME280;46321;48.398;11.754;2023-09-07T01:30:52;96917.22;;;15.94;73.19
60479;BME280;46321;48.398;11.754;2023-09-07T01:33:17;96909.63;;;15.90;73.06
60479;BME280;46321;48.398;11.754;2023-09-07T01:35:43;96907.94;;;15.89;73.41
60479;BME280;46321;48.398;11.754;2023-09-07T01:38:09;96908.53;;;15.85;73.51
60479;BME280;46321;48.398;11.754;2023-09-07T01:40:34;96910.97;;;15.79;73.87
60479;BME280;46321;48.398;11.754;2023-09-07T01:43:00;96910.34;;;15.77;73.69
60479;BME280;46321;48.398;11.754;2023-09-07T01:45:26;96911.59;;;15.82;73.24
60479;BME280;46321;48.398;11.754;2023-09-07T01:47:51;96907.66;;;15.71;74.48
60479;BME280;46321;48.398;11.754;2023-09-07T01:50:17;96909.28;;;15.65;74.26
60479;BME280;46321;48.398;11.754;2023-09-07T01:52:42;96907.00;;;15.62;74.25
60479;BME280;46321;48.398;11.754;2023-09-07T01:55:08;96906.38;;;15.60;74.96
60479;BME280;46321;48.398;11.754;2023-09-07T01:57:33;96900.88;;;15.61;74.21
60479;BME280;46321;48.398;11.754;2023-09-07T01:59:58;96912.34;;;15.62;74.42
60479;BME280;46321;48.398;11.754;2023-09-07T02:02:24;96902.91;;;15.66;74.60
60479;BME280;46321;48.398;11.754;2023-09-07T02:04:49;96910.25;;;15.57;74.03
60479;BME280;46321;48.398;11.754;2023-09-07T02:07:14;96902.25;;;15.57;74.40
60479;BME280;46321;48.398;11.754;2023-09-07T02:09:40;96904.50;;;15.53;74.48
60479;BME280;46321;48.398;11.754;2023-09-07T02:12:06;96909.38;;;15.43;74.33
60479;BME280;46321;48.398;11.754;2023-09-07T02:14:31;96916.53;;;15.42;74.83
60479;BME280;46321;48.398;11.754;2023-09-07T02:16:56;96909.50;;;15.34;75.28
60479;BME280;46321;48.398;11.754;2023-09-07T02:19:21;96910.28;;;15.28;75.89
60479;BME280;46321;48.398;11.754;2023-09-07T02:21:49;96908.22;;;15.23;75.66
60479;BME280;46321;48.398;11.754;2023-09-07T02:24:15;96906.78;;;15.21;75.27
60479;BME280;46321;48.398;11.754;2023-09-07T02:26:40;96905.50;;;15.17;75.51
60479;BME280;46321;48.398;11.754;2023-09-07T02:29:10;96916.13;;;15.10;76.46
60479;BME280;46321;48.398;11.754;2023-09-07T02:31:36;96914.22;;;15.04;76.22
60479;BME280;46321;48.398;11.754;2023-09-07T02:34:01;96910.34;;;15.06;75.92
60479;BME280;46321;48.398;11.754;2023-09-07T02:36:27;96911.13;;;15.00;76.67
60479;BME280;46321;48.398;11.754;2023-09-07T02:38:52;96909.03;;;14.95;76.65
60479;BME280;46321;48.398;11.754;2023-09-07T02:41:18;96909.03;;;14.95;76.26
60479;BME280;46321;48.398;11.754;2023-09-07T02:43:43;96913.53;;;14.95;76.55
60479;BME280;46321;48.398;11.754;2023-09-07T02:46:08;96912.72;;;14.94;76.12
60479;BME280;46321;48.398;11.754;2023-09-07T02:48:33;96919.06;;;14.93;76.39
60479;BME280;46321;48.398;11.754;2023-09-07T02:50:59;96912.91;;;14.93;76.52
60479;BME280;46321;48.398;11.754;2023-09-07T02:53:25;96921.31;;;14.90;76.80
60479;BME280;46321;48.398;11.754;2023-09-07T02:55:50;96920.03;;;14.85;76.72
60479;BME280;46321;48.398;11.754;2023-09-07T02:58:15;96914.69;;;14.85;76.79
60479;BME280;46321;48.398;11.754;2023-09-07T03:00:45;96906.03;;;14.83;77.29
60479;BME280;46321;48.398;11.754;2023-09-07T03:03:11;96907.66;;;14.77;77.00
60479;BME280;46321;48.398;11.754;2023-09-07T03:05:41;96919.50;;;14.75;77.55
60479;BME280;46321;48.398;11.754;2023-09-07T03:08:07;96908.34;;;14.64;77.52
60479;BME280;46321;48.398;11.754;2023-09-07T03:10:34;96912.84;;;14.64;77.83
60479;BME280;46321;48.398;11.754;2023-09-07T03:12:59;96916.72;;;14.61;77.93
60479;BME280;46321;48.398;11.754;2023-09-07T03:15:25;96916.53;;;14.63;77.58
60479;BME280;46321;48.398;11.754;2023-09-07T03:17:50;96917.34;;;14.63;77.70
60479;BME280;46321;48.398;11.754;2023-09-07T03:20:15;96921.41;;;14.59;78.34
60479;BME280;46321;48.398;11.754;2023-09-07T03:22:44;96913.69;;;14.64;78.14
60479;BME280;46321;48.398;11.754;2023-09-07T03:25:10;96923.06;;;14.60;78.08
60479;BME280;46321;48.398;11.754;2023-09-07T03:27:36;96925.16;;;14.65;77.79
60479;BME280;46321;48.398;11.754;2023-09-07T03:30:03;96919.59;;;14.60;77.64
60479;BME280;46321;48.398;11.754;2023-09-07T03:32:29;96918.19;;;14.64;77.70
60479;BME280;46321;48.398;11.754;2023-09-07T03:35:00;96910.75;;;14.59;77.47
60479;BME280;46321;48.398;11.754;2023-09-07T03:37:27;96915.03;;;14.53;77.81
60479;BME280;46321;48.398;11.754;2023-09-07T03:39:53;96916.03;;;14.52;77.98
60479;BME280;46321;48.398;11.754;2023-09-07T03:42:18;96919.88;;;14.50;77.84
60479;BME280;46321;48.398;11.754;2023-09-07T03:44:43;96917.63;;;14.47;77.78
60479;BME280;46321;48.398;11.754;2023-09-07T03:47:09;96912.41;;;14.38;78.14
60479;BME280;46321;48.398;11.754;2023-09-07T03:49:35;96917.72;;;14.38;77.99
60479;BME280;46321;48.398;11.754;2023-09-07T03:52:00;96917.84;;;14.30;78.34
60479;BME280;46321;48.398;11.754;2023-09-07T03:54:25;96917.84;;;14.30;78.52
60479;BME280;46321;48.398;11.754;2023-09-07T03:56:51;96916.00;;;14.30;78.77
60479;BME280;46321;48.398;11.754;2023-09-07T03:59:16;96921.53;;;14.29;78.65
60479;BME280;46321;48.398;11.754;2023-09-07T04:01:42;96918.16;;;14.20;78.52
60479;BME280;46321;48.398;11.754;2023-09-07T04:04:07;96918.97;;;14.20;78.99
60479;BME280;46321;48.398;11.754;2023-09-07T04:06:32;96913.22;;;14.17;79.03
60479;BME280;46321;48.398;11.754;2023-09-07T04:08:57;96918.09;;;14.13;79.22
60479;BME280;46321;48.398;11.754;2023-09-07T04:11:23;96913.78;;;14.12;79.79
60479;BME280;46321;48.398;11.754;2023-09-07T04:13:48;96916.78;;;14.09;79.37
60479;BME280;46321;48.398;11.754;2023-09-07T04:16:13;96916.56;;;14.04;79.09
60479;BME280;46321;48.398;11.754;2023-09-07T04:18:39;96913.50;;;14.07;79.15
60479;BME280;46321;48.398;11.754;2023-09-07T04:21:06;96925.53;;;14.03;79.00
60479;BME280;46321;48.398;11.754;2023-09-07T04:23:31;96921.78;;;13.97;79.58
60479;BME280;46321;48.398;11.754;2023-09-07T04:26:07;96933.63;;;13.94;79.89
60479;BME280;46321;48.398;11.754;2023-09-07T04:28:33;96929.31;;;13.93;79.56
60479;BME280;46321;48.398;11.754;2023-09-07T04:30:58;96933.44;;;13.96;79.91
60479;BME280;46321;48.398;11.754;2023-09-07T04:33:23;96939.16;;;13.93;79.78
60479;BME280;46321;48.398;11.754;2023-09-07T04:35:48;96935.94;;;13.98;79.89
60479;BME280;46321;48.398;11.754;2023-09-07T04:38:14;96930.97;;;13.94;79.45
60479;BME280;46321;48.398;11.754;2023-09-07T04:40:39;96940.53;;;13.89;80.17
60479;BME280;46321;48.398;11.754;2023-09-07T04:43:04;96932.72;;;13.87;79.97
60479;BME280;46321;48.398;11.754;2023-09-07T04:45:30;96943.19;;;13.89;79.73
60479;BME280;46321;48.398;11.754;2023-09-07T04:47:56;96943.00;;;13.90;79.24
60479;BME280;46321;48.398;11.754;2023-09-07T04:50:21;96938.88;;;13.88;79.76
60479;BME280;46321;48.398;11.754;2023-09-07T04:52:46;96938.31;;;13.92;79.55
60479;BME280;46321;48.398;11.754;2023-09-07T04:55:12;96935.28;;;13.95;80.08
60479;BME280;46321;48.398;11.754;2023-09-07T04:57:37;96926.91;;;13.99;79.67
60479;BME280;46321;48.398;11.754;2023-09-07T05:00:04;96933.91;;;14.00;79.55
60479;BME280;46321;48.398;11.754;2023-09-07T05:02:30;96938.59;;;13.98;79.37
60479;BME280;46321;48.398;11.754;2023-09-07T05:04:55;96939.22;;;14.00;79.21
60479;BME280;46321;48.398;11.754;2023-09-07T05:07:20;96941.41;;;13.96;79.73
60479;BME280;46321;48.398;11.754;2023-09-07T05:09:45;96942.34;;;14.03;78.86
60479;BME280;46321;48.398;11.754;2023-09-07T05:12:11;96937.66;;;14.05;78.75
60479;BME280;46321;48.398;11.754;2023-09-07T05:14:36;96937.44;;;14.07;78.24
60479;BME280;46321;48.398;11.754;2023-09-07T05:17:01;96938.47;;;14.06;78.59
60479;BME280;46321;48.398;11.754;2023-09-07T05:19:27;96939.31;;;14.06;78.79
60479;BME280;46321;48.398;11.754;2023-09-07T05:21:52;96943.41;;;14.09;78.94
60479;BME280;46321;48.398;11.754;2023-09-07T05:24:17;96945.97;;;14.17;79.01
60479;BME280;46321;48.398;11.754;2023-09-07T05:26:43;96960.84;;;14.27;78.75
60479;BME280;46321;48.398;11.754;2023-09-07T05:29:09;96952.72;;;14.35;78.50
60479;BME280;46321;48.398;11.754;2023-09-07T05:31:35;96955.28;;;14.43;78.63
60479;BME280;46321;48.398;11.754;2023-09-07T05:34:00;96959.06;;;14.56;78.33
60479;BME280;46321;48.398;11.754;2023-09-07T05:36:26;96963.16;;;14.74;78.03
60479;BME280;46321;48.398;11.754;2023-09-07T05:38:52;96969.91;;;14.92;77.88
60479;BME280;46321;48.398;11.754;2023-09-07T05:41:17;96970.41;;;15.02;78.22
60479;BME280;46321;48.398;11.754;2023-09-07T05:43:43;96962.94;;;15.19;77.08
60479;BME280;46321;48.398;11.754;2023-09-07T05:46:08;96970.03;;;15.34;76.01
60479;BME280;46321;48.398;11.754;2023-09-07T05:48:33;96970.31;;;15.46;75.72
60479;BME280;46321;48.398;11.754;2023-09-07T05:50:59;96972.91;;;15.61;75.33
60479;BME280;46321;48.398;11.754;2023-09-07T05:53:24;96977.53;;;15.81;75.14
60479;BME280;46321;48.398;11.754;2023-09-07T05:55:51;96984.59;;;16.02;74.64
60479;BME280;46321;48.398;11.754;2023-09-07T05:58:17;96980.56;;;16.13;74.53
60479;BME280;46321;48.398;11.754;2023-09-07T06:00:42;96983.94;;;16.36;74.35
60479;BME280;46321;48.398;11.754;2023-09-07T06:03:08;96984.00;;;16.56;72.41
60479;BME280;46321;48.398;11.754;2023-09-07T06:05:35;96986.06;;;16.61;71.49
60479;BME280;46321;48.398;11.754;2023-09-07T06:08:01;96983.44;;;16.81;70.18
60479;BME280;46321;48.398;11.754;2023-09-07T06:10:30;96985.91;;;16.97;68.65
60479;BME280;46321;48.398;11.754;2023-09-07T06:12:56;96980.38;;;17.12;68.30
60479;BME280;46321;48.398;11.754;2023-09-07T06:15:22;96978.34;;;17.27;68.80
60479;BME280;46321;48.398;11.754;2023-09-07T06:17:47;96975.88;;;17.39;67.53
60479;BME280;46321;48.398;11.754;2023-09-07T06:20:12;96972.97;;;17.55;66.83
60479;BME280;46321;48.398;11.754;2023-09-07T06:22:38;96975.41;;;17.70;66.53
60479;BME280;46321;48.398;11.754;2023-09-07T06:25:03;96979.09;;;17.82;65.67
60479;BME280;46321;48.398;11.754;2023-09-07T06:27:28;96978.66;;;17.92;65.06
60479;BME280;46321;48.398;11.754;2023-09-07T06:29:54;96985.84;;;18.05;65.07
60479;BME280;46321;48.398;11.754;2023-09-07T06:32:19;96987.81;;;18.30;64.24
60479;BME280;46321;48.398;11.754;2023-09-07T06:34:45;96981.19;;;18.40;63.95
60479;BME280;46321;48.398;11.754;2023-09-07T06:37:11;96977.00;;;18.51;63.47
60479;BME280;46321;48.398;11.754;2023-09-07T06:39:36;96979.00;;;18.62;62.59
60479;BME280;46321;48.398;11.754;2023-09-07T06:42:02;96979.41;;;18.66;63.05
60479;BME280;46321;48.398;11.754;2023-09-07T06:44:28;96986.13;;;18.75;62.76
60479;BME280;46321;48.398;11.754;2023-09-07T06:46:54;96981.88;;;18.93;61.86
60479;BME280;46321;48.398;11.754;2023-09-07T06:49:19;96988.00;;;19.07;61.36
60479;BME280;46321;48.398;11.754;2023-09-07T06:51:44;96996.81;;;19.15;60.23
60479;BME280;46321;48.398;11.754;2023-09-07T06:54:10;96985.69;;;19.11;60.00
60479;BME280;46321;48.398;11.754;2023-09-07T06:56:35;96986.06;;;19.21;59.99
60479;BME280;46321;48.398;11.754;2023-09-07T06:59:00;96992.00;;;19.49;60.55
60479;BME280;46321;48.398;11.754;2023-09-07T07:01:26;96985.72;;;19.81;60.26
60479;BME280;46321;48.398;11.754;2023-09-07T07:03:51;96989.13;;;20.07;58.52
60479;BME280;46321;48.398;11.754;2023-09-07T07:06:18;96990.50;;;19.98;58.09
60479;BME280;46321;48.398;11.754;2023-09-07T07:08:43;96991.94;;;20.19;58.33
60479;BME280;46321;48.398;11.754;2023-09-07T07:11:08;96992.44;;;20.28;57.40
60479;BME280;46321;48.398;11.754;2023-09-07T07:13:34;96996.34;;;20.13;57.80
60479;BME280;46321;48.398;11.754;2023-09-07T07:15:59;97000.00;;;20.19;57.89
60479;BME280;46321;48.398;11.754;2023-09-07T07:18:25;96987.66;;;20.30;57.34
60479;BME280;46321;48.398;11.754;2023-09-07T07:20:50;96993.63;;;20.51;57.41
60479;BME280;46321;48.398;11.754;2023-09-07T07:23:16;96994.66;;;20.50;57.43
60479;BME280;46321;48.398;11.754;2023-09-07T07:25:41;96997.94;;;20.52;57.38
60479;BME280;46321;48.398;11.754;2023-09-07T07:28:07;96999.34;;;20.86;56.77
60479;BME280;46321;48.398;11.754;2023-09-07T07:30:33;96998.28;;;21.17;54.80
60479;BME280;46321;48.398;11.754;2023-09-07T07:32:59;97001.13;;;21.47;55.41
60479;BME280;46321;48.398;11.754;2023-09-07T07:35:24;96999.59;;;21.63;54.80
60479;BME280;46321;48.398;11.754;2023-09-07T07:37:50;97008.50;;;21.76;54.35
60479;BME280;46321;48.398;11.754;2023-09-07T07:40:16;97001.78;;;22.14;52.70
60479;BME280;46321;48.398;11.754;2023-09-07T07:42:43;97000.09;;;22.37;52.47
60479;BME280;46321;48.398;11.754;2023-09-07T07:45:09;97000.47;;;22.70;52.82
60479;BME280;46321;48.398;11.754;2023-09-07T07:47:34;96993.75;;;23.02;51.06
60479;BME280;46321;48.398;11.754;2023-09-07T07:49:59;96994.50;;;23.32;50.42
60479;BME280;46321;48.398;11.754;2023-09-07T07:52:25;96996.13;;;23.67;49.48
60479;BME280;46321;48.398;11.754;2023-09-07T07:54:50;97004.38;;;23.78;49.69
60479;BME280;46321;48.398;11.754;2023-09-07T07:57:15;97000.13;;;23.65;48.86
60479;BME280;46321;48.398;11.754;2023-09-07T07:59:40;97002.56;;;24.06;48.29
60479;BME280;46321;48.398;11.754;2023-09-07T08:02:06;97002.25;;;24.70;47.39
60479;BME280;46321;48.398;11.754;2023-09-07T08:04:32;97005.59;;;25.05;46.58
60479;BME280;46321;48.398;11.754;2023-09-07T08:06:57;96994.59;;;25.55;45.95
60479;BME280;46321;48.398;11.754;2023-09-07T08:09:29;96991.34;;;25.96;45.00
60479;BME280;46321;48.398;11.754;2023-09-07T08:11:54;96988.59;;;26.45;44.31
60479;BME280;46321;48.398;11.754;2023-09-07T08:14:21;96992.75;;;27.05;42.15
60479;BME280;46321;48.398;11.754;2023-09-07T08:16:47;96988.69;;;27.08;41.78
60479;BME280;46321;48.398;11.754;2023-09-07T08:19:12;96984.06;;;27.45;42.09
60479;BME280;46321;48.398;11.754;2023-09-07T08:21:38;96986.22;;;27.64;41.38
60479;BME280;46321;48.398;11.754;2023-09-07T08:24:03;96993.03;;;27.82;39.11
60479;BME280;46321;48.398;11.754;2023-09-07T08:26:28;96984.34;;;27.43;39.45
60479;BME280;46321;48.398;11.754;2023-09-07T08:28:54;96972.97;;;27.20;40.95
60479;BME280;46321;48.398;11.754;2023-09-07T08:31:19;96967.88;;;28.17;39.86
60479;BME280;46321;48.398;11.754;2023-09-07T08:33:47;96972.47;;;28.72;37.72
60479;BME280;46321;48.398;11.754;2023-09-07T08:36:15;96973.63;;;28.66;38.25
60479;BME280;46321;48.398;11.754;2023-09-07T08:38:42;96986.59;;;28.23;37.97
60479;BME280;46321;48.398;11.754;2023-09-07T08:41:08;96980.34;;;28.79;38.20
60479;BME280;46321;48.398;11.754;2023-09-07T08:43:35;96968.41;;;29.75;36.76
60479;BME280;46321;48.398;11.754;2023-09-07T08:46:14;96979.13;;;30.59;35.53
60479;BME280;46321;48.398;11.754;2023-09-07T08:48:40;96979.22;;;30.92;33.42
60479;BME280;46321;48.398;11.754;2023-09-07T08:51:07;96978.78;;;30.22;33.85
60479;BME280;46321;48.398;11.754;2023-09-07T08:53:33;96985.28;;;30.26;34.77
60479;BME280;46321;48.398;11.754;2023-09-07T08:56:01;96985.41;;;30.79;34.18
60479;BME280;46321;48.398;11.754;2023-09-07T08:58:26;96976.41;;;31.79;31.96
60479;BME280;46321;48.398;11.754;2023-09-07T09:00:51;96982.81;;;32.30;31.79
60479;BME280;46321;48.398;11.754;2023-09-07T09:03:17;96971.81;;;33.19;30.32
60479;BME280;46321;48.398;11.754;2023-09-07T09:05:45;96963.97;;;33.26;30.85
60479;BME280;46321;48.398;11.754;2023-09-07T09:08:11;96969.59;;;34.61;28.72
60479;BME280;46321;48.398;11.754;2023-09-07T09:10:39;96955.06;;;34.52;28.16
60479;BME280;46321;48.398;11.754;2023-09-07T09:13:05;96959.19;;;36.16;27.14
60479;BME280;46321;48.398;11.754;2023-09-07T09:15:31;96959.34;;;36.93;24.87
60479;BME280;46321;48.398;11.754;2023-09-07T09:17:56;96956.09;;;36.48;25.23
60479;BME280;46321;48.398;11.754;2023-09-07T09:20:24;96958.19;;;36.51;25.79
60479;BME280;46321;48.398;11.754;2023-09-07T09:22:52;96957.97;;;37.93;24.76
60479;BME280;46321;48.398;11.754;2023-09-07T09:25:18;96965.97;;;38.23;23.80
60479;BME280;46321;48.398;11.754;2023-09-07T09:27:43;96970.56;;;38.85;23.34
60479;BME280;46321;48.398;11.754;2023-09-07T09:30:08;96961.06;;;38.99;22.64
60479;BME280;46321;48.398;11.754;2023-09-07T09:32:34;96963.84;;;39.44;22.85
60479;BME280;46321;48.398;11.754;2023-09-07T09:35:00;96951.97;;;38.03;23.41
60479;BME280;46321;48.398;11.754;2023-09-07T09:37:30;96946.97;;;38.46;23.39
60479;BME280;46321;48.398;11.754;2023-09-07T09:39:56;96956.00;;;39.46;22.37
60479;BME280;46321;48.398;11.754;2023-09-07T09:42:24;96928.97;;;40.24;20.46
60479;BME280;46321;48.398;11.754;2023-09-07T09:44:50;96945.53;;;40.20;21.12
60479;BME280;46321;48.398;11.754;2023-09-07T09:47:16;96944.31;;;39.08;21.53
60479;BME280;46321;48.398;11.754;2023-09-07T09:49:42;96938.63;;;40.50;20.48
60479;BME280;46321;48.398;11.754;2023-09-07T09:52:08;96950.34;;;39.26;22.09
60479;BME280;46321;48.398;11.754;2023-09-07T09:54:35;96932.50;;;40.60;20.55
60479;BME280;46321;48.398;11.754;2023-09-07T09:57:01;96924.59;;;41.46;20.70
60479;BME280;46321;48.398;11.754;2023-09-07T09:59:26;96927.19;;;42.09;18.71
60479;BME280;46321;48.398;11.754;2023-09-07T10:01:52;96929.81;;;41.27;19.97
60479;BME280;46321;48.398;11.754;2023-09-07T10:04:20;96923.31;;;42.79;19.05
60479;BME280;46321;48.398;11.754;2023-09-07T10:06:54;96928.47;;;42.46;18.88
60479;BME280;46321;48.398;11.754;2023-09-07T10:09:20;96933.31;;;43.67;17.21
60479;BME280;46321;48.398;11.754;2023-09-07T10:11:51;96933.94;;;43.46;17.06
60479;BME280;46321;48.398;11.754;2023-09-07T10:14:17;96925.94;;;43.93;17.27
60479;BME280;46321;48.398;11.754;2023-09-07T10:16:50;96933.75;;;42.55;17.36
60479;BME280;46321;48.398;11.754;2023-09-07T10:21:44;96936.19;;;41.98;17.70
60479;BME280;46321;48.398;11.754;2023-09-07T10:24:09;96921.97;;;43.42;16.73
60479;BME280;46321;48.398;11.754;2023-09-07T10:26:35;96929.53;;;44.69;15.73
60479;BME280;46321;48.398;11.754;2023-09-07T10:29:01;96934.38;;;44.83;15.37
60479;BME280;46321;48.398;11.754;2023-09-07T10:31:28;96929.44;;;44.47;15.86
60479;BME280;46321;48.398;11.754;2023-09-07T10:33:55;96918.47;;;46.04;15.20
60479;BME280;46321;48.398;11.754;2023-09-07T10:36:23;96921.69;;;45.95;14.83
60479;BME280;46321;48.398;11.754;2023-09-07T10:38:49;96912.97;;;45.49;15.41
60479;BME280;46321;48.398;11.754;2023-09-07T10:41:14;96914.16;;;46.97;14.16
60479;BME280;46321;48.398;11.754;2023-09-07T10:43:53;96913.50;;;48.23;13.39
60479;BME280;46321;48.398;11.754;2023-09-07T10:46:20;96910.00;;;47.20;14.41
60479;BME280;46321;48.398;11.754;2023-09-07T10:48:49;96917.34;;;47.56;13.95
60479;BME280;46321;48.398;11.754;2023-09-07T10:51:14;96908.25;;;46.76;14.60
60479;BME280;46321;48.398;11.754;2023-09-07T10:53:39;96908.28;;;47.41;13.87
60479;BME280;46321;48.398;11.754;2023-09-07T10:56:05;96905.53;;;47.33;13.93
60479;BME280;46321;48.398;11.754;2023-09-07T10:58:32;96906.81;;;48.45;13.30
60479;BME280;46321;48.398;11.754;2023-09-07T11:00:58;96907.28;;;44.87;15.48
60479;BME280;46321;48.398;11.754;2023-09-07T11:03:25;96914.31;;;47.36;13.79
60479;BME280;46321;48.398;11.754;2023-09-07T11:06:03;96908.78;;;44.59;16.20
60479;BME280;46321;48.398;11.754;2023-09-07T11:08:29;96919.19;;;44.77;16.18
60479;BME280;46321;48.398;11.754;2023-09-07T11:10:55;96909.66;;;41.30;18.97
60479;BME280;46321;48.398;11.754;2023-09-07T11:13:21;96913.50;;;36.67;24.74
60479;BME280;46321;48.398;11.754;2023-09-07T11:15:48;96909.66;;;35.47;26.36
60479;BME280;46321;48.398;11.754;2023-09-07T11:18:13;96918.47;;;32.42;28.24
60479;BME280;46321;48.398;11.754;2023-09-07T11:20:38;96911.78;;;31.83;29.53
60479;BME280;46321;48.398;11.754;2023-09-07T11:23:06;96904.28;;;31.60;30.87
60479;BME280;46321;48.398;11.754;2023-09-07T11:25:39;96914.63;;;30.82;32.26
60479;BME280;46321;48.398;11.754;2023-09-07T11:28:05;96917.56;;;30.28;31.94
60479;BME280;46321;48.398;11.754;2023-09-07T11:30:31;96907.22;;;30.05;33.92
60479;BME280;46321;48.398;11.754;2023-09-07T11:33:01;96908.78;;;29.68;34.30
60479;BME280;46321;48.398;11.754;2023-09-07T11:35:26;96904.66;;;29.70;34.69
60479;BME280;46321;48.398;11.754;2023-09-07T11:37:52;96898.34;;;29.45;34.82
60479;BME280;46321;48.398;11.754;2023-09-07T11:40:17;96915.25;;;28.37;35.02
60479;BME280;46321;48.398;11.754;2023-09-07T11:42:43;96906.44;;;28.05;35.99
60479;BME280;46321;48.398;11.754;2023-09-07T11:45:08;96904.06;;;27.88;36.99
60479;BME280;46321;48.398;11.754;2023-09-07T11:47:34;96903.81;;;27.74;36.30
60479;BME280;46321;48.398;11.754;2023-09-07T11:50:00;96894.69;;;27.43;37.21
60479;BME280;46321;48.398;11.754;2023-09-07T11:52:26;96899.81;;;27.50;36.30
60479;BME280;46321;48.398;11.754;2023-09-07T11:54:51;96900.16;;;27.33;37.14
60479;BME280;46321;48.398;11.754;2023-09-07T11:57:17;96901.22;;;27.27;37.56
60479;BME280;46321;48.398;11.754;2023-09-07T11:59:42;96892.03;;;27.17;36.89
60479;BME280;46321;48.398;11.754;2023-09-07T12:02:07;96891.44;;;27.41;37.58
60479;BME280;46321;48.398;11.754;2023-09-07T12:04:36;96887.06;;;27.40;36.95
60479;BME280;46321;48.398;11.754;2023-09-07T12:07:02;96890.84;;;27.44;38.35
60479;BME280;46321;48.398;11.754;2023-09-07T12:09:28;96896.81;;;27.57;38.33
60479;BME280;46321;48.398;11.754;2023-09-07T12:11:53;96896.31;;;27.34;35.58
60479;BME280;46321;48.398;11.754;2023-09-07T12:14:18;96895.25;;;27.25;36.20
60479;BME280;46321;48.398;11.754;2023-09-07T12:16:44;96900.41;;;27.05;37.27
60479;BME280;46321;48.398;11.754;2023-09-07T12:19:09;96886.84;;;27.00;37.09
60479;BME280;46321;48.398;11.754;2023-09-07T12:21:34;96890.38;;;27.11;37.71
60479;BME280;46321;48.398;11.754;2023-09-07T12:23:59;96891.16;;;27.06;37.57
60479;BME280;46321;48.398;11.754;2023-09-07T12:26:25;96880.34;;;27.12;36.78
60479;BME280;46321;48.398;11.754;2023-09-07T12:28:50;96883.56;;;27.08;38.26
60479;BME280;46321;48.398;11.754;2023-09-07T12:31:15;96880.06;;;27.08;36.92
60479;BME280;46321;48.398;11.754;2023-09-07T12:33:41;96874.38;;;27.09;38.23
60479;BME280;46321;48.398;11.754;2023-09-07T12:36:07;96873.81;;;27.23;38.96
60479;BME280;46321;48.398;11.754;2023-09-07T12:38:35;96879.78;;;27.20;38.15
60479;BME280;46321;48.398;11.754;2023-09-07T12:41:00;96871.38;;;27.21;38.36
60479;BME280;46321;48.398;11.754;2023-09-07T12:43:25;96875.16;;;27.05;38.11
60479;BME280;46321;48.398;11.754;2023-09-07T12:45:50;96875.72;;;26.75;38.41